KTOI/TOI METAR and TAF weather

Enter ICAO airport designator
Station Type Date Time Source
KTOI METAR 2020/01/23 17:53 UTC NOAA

KTOI 231753Z AUTO 12005KT 10SM -RA OVC007 07/06 A3013 RMK AO2 RAB1656E05B39 SLP202 P0001 60014 T00720061 10078 20039 58022


Station Type Date Time Source
KTOI Decoded METAR 2020/01/23 17:53 UTC NOAA

TROY MUNICIPAL AIRPORT, AL, United States (KTOI) 31-52N 086-01W 118M
Jan 23, 2020 - 12:53 PM EST / 2020.01.23 1753 UTC
Wind: from the ESE (120 degrees) at 6 MPH (5 KT):0
Visibility: 10 mile(s):0
Sky conditions: overcast
Weather: light rain
Precipitation last hour: 0.01 inches
Temperature: 45.0 F (7.2 C)
Dew Point: 43.0 F (6.1 C)
Relative Humidity: 92%
Pressure (altimeter): 30.13 in. Hg (1020 hPa)
Pressure tendency: 0.06 inches (2.2 hPa) lower than three hours ago
ob: KTOI 231753Z AUTO 12005KT 10SM -RA OVC007 07/06 A3013 RMK AO2 RAB1656E05B39 SLP202 P0001 60014 T00720061 10078 20039 58022
cycle: 18

Station Type Date Time Source
KTOI TAF 2020/01/23 18:36 UTC NOAA

TAF KTOI 231734Z 2318/2418 09007KT P6SM VCSH OVC007
FM232200 11009KT 6SM SHRA OVC009
FM240700 14006KT 4SM SHRA OVC006 PROB30 2409/2413 4SM -SHRA OVC004
FM241300 22006KT P6SM BKN005 PROB30 2413/2415 4SM -SHRA
FM241600 28008KT P6SM BKN090

Example: see airport list